Time;durP1;ratioP1;P1;durP2;ratioP2;P2;SDS_P1;SDS_P2;PMS_P1;PMS_P2;Temp;Humidity;BMP_temperature;BMP_pressure;BME280_temperature;BME280_humidity;BME280_pressure;Samples;Min_cycle;Max_cycle;Signal;HPM_P1;HPM_P2
2023/06/28 00:00:09;;;;;;;7.10;4.33;;;;;;;20.45;100.00;98723.44;5059013;28;20213;-74
2023/06/28 00:02:37;;;;;;;6.17;4.00;;;;;;;20.45;100.00;98724.28;5058742;28;20235;-79
2023/06/28 00:05:04;;;;;;;5.90;3.60;;;;;;;20.38;100.00;98728.56;5058688;28;20204;-74
2023/06/28 00:07:32;;;;;;;6.40;4.17;;;;;;;20.31;100.00;98722.50;5061738;28;20283;-74
2023/06/28 00:09:59;;;;;;;5.77;3.97;;;;;;;20.28;100.00;98726.28;5049089;28;20657;-74
2023/06/28 00:12:26;;;;;;;7.00;4.20;;;;;;;20.26;100.00;98723.06;5061693;28;20614;-74
2023/06/28 00:14:54;;;;;;;5.53;3.77;;;;;;;20.23;100.00;98725.22;5062081;28;20199;-79
2023/06/28 00:17:27;;;;;;;5.80;3.90;;;;;;;20.25;100.00;98723.25;5063381;28;20284;-78
2023/06/28 00:19:55;;;;;;;6.20;3.93;;;;;;;20.23;100.00;98722.63;5069613;28;20253;-79
2023/06/28 00:22:23;;;;;;;5.13;3.53;;;;;;;20.24;100.00;98724.22;5069592;28;20229;-74
2023/06/28 00:24:50;;;;;;;6.37;4.33;;;;;;;20.23;100.00;98728.59;5066631;28;20209;-74
2023/06/28 00:27:17;;;;;;;6.00;4.07;;;;;;;20.12;100.00;98722.06;5065697;28;20237;-74
2023/06/28 00:29:44;;;;;;;6.77;4.00;;;;;;;20.15;100.00;98725.31;5069577;28;20205;-79
2023/06/28 00:32:11;;;;;;;4.93;3.47;;;;;;;20.07;100.00;98724.44;5067524;28;20222;-76
2023/06/28 00:34:37;;;;;;;7.47;3.73;;;;;;;20.13;100.00;98728.91;5068312;28;20574;-78
2023/06/28 00:37:06;;;;;;;5.97;3.83;;;;;;;20.12;100.00;98724.69;5064115;28;20224;-74
2023/06/28 00:39:34;;;;;;;5.97;4.07;;;;;;;20.00;100.00;98728.72;5069265;28;20244;-78
2023/06/28 00:42:01;;;;;;;6.00;3.93;;;;;;;20.02;100.00;98726.75;5070114;28;20232;-78
2023/06/28 00:44:29;;;;;;;5.23;3.80;;;;;;;20.08;100.00;98726.03;5071433;28;20201;-73
2023/06/28 00:46:56;;;;;;;6.63;4.13;;;;;;;20.10;100.00;98723.25;5072098;28;20721;-80
2023/06/28 00:49:24;;;;;;;6.40;3.93;;;;;;;20.08;100.00;98713.06;5073230;28;20588;-74
2023/06/28 00:51:52;;;;;;;9.63;3.87;;;;;;;20.02;100.00;98716.38;5070261;28;20236;-79
2023/06/28 00:54:20;;;;;;;5.20;3.57;;;;;;;19.98;100.00;98711.72;5071190;28;20201;-74
2023/06/28 00:56:48;;;;;;;7.27;4.27;;;;;;;19.96;100.00;98717.09;5073157;28;20237;-74
2023/06/28 00:59:16;;;;;;;7.23;4.50;;;;;;;19.96;100.00;98717.09;5071548;28;20220;-79
2023/06/28 01:01:43;;;;;;;7.07;4.10;;;;;;;19.96;100.00;98714.50;5071758;28;20588;-79
2023/06/28 01:04:13;;;;;;;7.03;4.17;;;;;;;19.95;100.00;98717.25;5061534;28;20210;-79
2023/06/28 01:06:43;;;;;;;6.63;3.90;;;;;;;19.83;100.00;98717.72;5052667;28;20238;-74
2023/06/28 01:09:11;;;;;;;6.80;4.07;;;;;;;19.80;100.00;98709.50;5057722;28;20236;-79
2023/06/28 01:11:41;;;;;;;6.03;3.83;;;;;;;19.84;100.00;98728.91;5071880;28;20246;-74
2023/06/28 01:14:08;;;;;;;5.53;3.83;;;;;;;19.76;100.00;98723.81;5053749;28;20209;-74
2023/06/28 01:16:35;;;;;;;6.50;3.90;;;;;;;19.70;100.00;98727.13;5052577;28;20233;-79
2023/06/28 01:19:03;;;;;;;7.57;4.47;;;;;;;19.68;100.00;98735.88;5061721;28;20240;-74
2023/06/28 01:21:35;;;;;;;7.63;4.10;;;;;;;19.67;100.00;98739.47;5072643;28;20240;-79
2023/06/28 01:24:03;;;;;;;6.50;4.03;;;;;;;19.67;100.00;98747.25;5072868;28;20221;-74
2023/06/28 01:26:33;;;;;;;8.77;4.27;;;;;;;19.62;100.00;98740.94;5070905;28;20220;-81
2023/06/28 01:29:00;;;;;;;7.40;4.67;;;;;;;19.60;100.00;98743.69;5066593;28;20204;-79
2023/06/28 01:31:28;;;;;;;6.47;3.77;;;;;;;19.55;100.00;98740.84;5072328;28;20222;-79
2023/06/28 01:33:55;;;;;;;7.40;4.30;;;;;;;19.60;100.00;98743.69;5072402;28;20670;-74
2023/06/28 01:36:22;;;;;;;8.10;4.17;;;;;;;19.50;100.00;98732.78;5066940;28;20579;-76
2023/06/28 01:38:50;;;;;;;6.57;4.10;;;;;;;19.46;100.00;98736.72;5071439;28;20211;-73
2023/06/28 01:41:19;;;;;;;7.00;4.27;;;;;;;19.46;100.00;98726.34;5072324;28;20229;-80
2023/06/28 01:43:45;;;;;;;7.03;4.00;;;;;;;19.45;100.00;98735.09;5072233;28;20215;-79
2023/06/28 01:46:13;;;;;;;7.37;3.87;;;;;;;19.47;100.00;98738.34;5060671;28;20291;-73
2023/06/28 01:48:39;;;;;;;7.00;4.37;;;;;;;19.45;100.00;98745.47;5052213;28;20733;-78
2023/06/28 01:51:07;;;;;;;6.63;4.20;;;;;;;19.48;100.00;98733.94;5051247;28;20629;-74
2023/06/28 01:53:33;;;;;;;6.80;4.10;;;;;;;19.56;100.00;98736.47;5051426;28;20219;-80
2023/06/28 01:56:00;;;;;;;7.50;4.10;;;;;;;19.55;100.00;98740.84;5067454;28;20225;-79
2023/06/28 01:58:29;;;;;;;6.20;4.13;;;;;;;19.58;100.00;98737.91;5071949;28;20602;-74
2023/06/28 02:00:55;;;;;;;6.47;4.33;;;;;;;19.57;100.00;98743.25;5071747;28;20226;-76
2023/06/28 02:03:22;;;;;;;6.33;3.90;;;;;;;19.54;100.00;98747.00;5068255;28;20614;-74
2023/06/28 02:05:49;;;;;;;7.20;4.43;;;;;;;19.54;100.00;98741.00;5058461;28;20611;-80
2023/06/28 02:08:16;;;;;;;6.77;4.13;;;;;;;19.53;100.00;98750.59;5052046;28;20620;-80
2023/06/28 02:10:43;;;;;;;5.63;4.10;;;;;;;19.56;100.00;98752.81;5051478;28;20226;-77
2023/06/28 02:13:10;;;;;;;5.63;3.70;;;;;;;19.58;100.00;98756.06;5058208;28;20200;-80
2023/06/28 02:15:38;;;;;;;9.90;4.50;;;;;;;19.61;100.00;98744.53;5065927;28;20229;-79
2023/06/28 02:18:05;;;;;;;7.17;4.47;;;;;;;19.54;100.00;98759.97;5071912;28;20205;-79
2023/06/28 02:20:32;;;;;;;6.07;3.97;;;;;;;19.64;100.00;98749.34;5071420;28;20212;-74
2023/06/28 02:22:58;;;;;;;6.10;4.10;;;;;;;19.62;100.00;98752.13;5064512;28;20207;-79
2023/06/28 02:25:25;;;;;;;7.07;4.20;;;;;;;19.64;100.00;98754.53;5071278;28;20206;-79
2023/06/28 02:27:52;;;;;;;7.13;4.23;;;;;;;19.59;100.00;98752.47;5071314;28;20274;-73
2023/06/28 02:30:19;;;;;;;5.70;3.97;;;;;;;19.58;100.00;98761.25;5068909;28;20209;-74
2023/06/28 02:32:47;;;;;;;6.30;3.70;;;;;;;19.57;100.00;98754.44;5065013;28;20214;-74
2023/06/28 02:35:15;;;;;;;9.50;4.30;;;;;;;19.59;100.00;98762.03;5070853;28;20209;-79
2023/06/28 02:37:42;;;;;;;7.10;4.13;;;;;;;19.52;100.00;98759.34;5071158;28;20584;-74
2023/06/28 02:40:12;;;;;;;7.53;4.20;;;;;;;19.51;100.00;98760.31;5067214;28;20600;-75
2023/06/28 02:42:38;;;;;;;6.50;4.23;;;;;;;19.51;100.00;98762.91;5067486;28;20634;-78
2023/06/28 02:45:06;;;;;;;6.20;4.30;;;;;;;19.55;100.00;98759.00;5070831;28;20214;-74
2023/06/28 02:47:33;;;;;;;6.30;3.90;;;;;;;19.55;100.00;98759.00;5067718;28;20727;-77
2023/06/28 02:50:05;;;;;;;7.73;3.93;;;;;;;19.55;100.00;98756.41;5065296;28;20199;-80
2023/06/28 02:52:32;;;;;;;6.27;4.00;;;;;;;19.49;100.00;98762.31;5071080;28;20314;-78
2023/06/28 02:54:59;;;;;;;8.13;4.23;;;;;;;19.51;100.00;98759.53;5068480;28;20699;-74
2023/06/28 02:57:27;;;;;;;6.03;4.03;;;;;;;19.54;100.00;98767.75;5054926;28;20246;-74
2023/06/28 02:59:53;;;;;;;7.23;4.03;;;;;;;19.53;100.00;98773.94;5058717;28;20224;-78
2023/06/28 03:02:20;;;;;;;8.57;4.00;;;;;;;19.52;100.00;98772.31;5070699;28;20252;-74
2023/06/28 03:04:47;;;;;;;6.77;3.90;;;;;;;19.42;100.00;98776.94;5067241;28;20217;-81
2023/06/28 03:07:16;;;;;;;6.37;4.00;;;;;;;19.39;100.00;98777.28;5070451;28;20230;-74
2023/06/28 03:09:43;;;;;;;6.53;3.70;;;;;;;19.32;100.00;98789.34;5067463;28;20201;-77
2023/06/28 03:12:11;;;;;;;6.53;3.90;;;;;;;19.37;100.00;98784.44;5070534;28;20232;-74
2023/06/28 03:14:38;;;;;;;6.63;3.93;;;;;;;19.37;100.00;98780.06;5067291;28;20209;-74
2023/06/28 03:17:05;;;;;;;5.63;3.67;;;;;;;19.37;100.00;98784.44;5065938;28;20230;-74
2023/06/28 03:19:32;;;;;;;5.93;3.50;;;;;;;19.37;100.00;98789.59;5070258;28;20214;-77
2023/06/28 03:21:59;;;;;;;8.03;3.80;;;;;;;19.34;100.00;98789.97;5070414;28;20213;-74
2023/06/28 03:24:27;;;;;;;5.53;3.60;;;;;;;19.39;100.00;98798.03;5067436;28;20208;-75
2023/06/28 03:26:54;;;;;;;6.57;4.23;;;;;;;19.34;100.00;98784.78;5066749;28;20220;-74
2023/06/28 03:29:21;;;;;;;6.57;3.50;;;;;;;19.34;100.00;98795.16;5070277;28;20268;-79
2023/06/28 03:31:48;;;;;;;6.40;4.00;;;;;;;19.32;100.00;98791.94;5067332;28;20218;-79
2023/06/28 03:34:16;;;;;;;6.83;4.43;;;;;;;19.34;100.00;98782.19;5070310;28;20205;-74
2023/06/28 03:36:43;;;;;;;6.23;3.80;;;;;;;19.30;100.00;98783.53;5065305;28;20248;-74
2023/06/28 03:39:10;;;;;;;6.90;3.87;;;;;;;19.29;100.00;98787.09;5070036;28;20210;-79
2023/06/28 03:41:38;;;;;;;6.33;3.97;;;;;;;19.29;100.00;98787.91;5066705;28;20225;-74
2023/06/28 03:44:05;;;;;;;7.07;4.10;;;;;;;19.32;100.00;98784.16;5068386;28;20668;-74
2023/06/28 03:46:32;;;;;;;6.87;4.37;;;;;;;19.36;100.00;98783.63;5069000;28;20227;-74
2023/06/28 03:48:59;;;;;;;8.27;4.33;;;;;;;19.34;100.00;98788.16;5070160;28;20240;-74
2023/06/28 03:51:26;;;;;;;6.53;3.90;;;;;;;19.32;100.00;98782.38;5066990;28;20229;-79
2023/06/28 03:53:52;;;;;;;6.57;3.70;;;;;;;19.39;100.00;98778.09;5066369;28;20641;-78
2023/06/28 03:56:19;;;;;;;6.23;3.53;;;;;;;19.39;100.00;98777.28;5069877;28;20222;-79
2023/06/28 03:58:49;;;;;;;6.67;4.23;;;;;;;19.39;100.00;98774.69;5067653;28;20224;-74
2023/06/28 04:01:16;;;;;;;7.03;4.10;;;;;;;19.39;100.00;98778.09;5069193;28;20707;-74
2023/06/28 04:03:43;;;;;;;6.37;3.97;;;;;;;19.45;100.00;98782.56;5064681;28;20198;-79
2023/06/28 04:06:10;;;;;;;5.57;3.30;;;;;;;19.48;100.00;98786.59;5069460;28;20304;-74
2023/06/28 04:08:37;;;;;;;5.40;3.70;;;;;;;19.54;100.00;98780.72;5066725;28;20224;-78
2023/06/28 04:11:03;;;;;;;6.73;4.00;;;;;;;19.53;100.00;98784.28;5069528;28;20601;-74
2023/06/28 04:13:30;;;;;;;6.17;3.40;;;;;;;19.57;100.00;98788.13;5067306;28;20570;-78
2023/06/28 04:15:58;;;;;;;7.87;4.07;;;;;;;19.59;100.00;98788.78;5072069;28;20214;-74
2023/06/28 04:18:25;;;;;;;6.47;3.63;;;;;;;19.64;100.00;98786.47;5070770;28;20648;-78
2023/06/28 04:20:52;;;;;;;8.57;4.10;;;;;;;19.66;100.00;98779.34;5071748;28;20232;-74
2023/06/28 04:23:19;;;;;;;6.40;3.70;;;;;;;19.70;100.00;98779.00;5073339;28;20215;-74
2023/06/28 04:25:46;;;;;;;6.50;3.90;;;;;;;19.72;100.00;98774.41;5072051;28;20563;-74
2023/06/28 04:28:13;;;;;;;9.80;4.37;;;;;;;19.76;100.00;98773.09;5054096;28;20231;-75
2023/06/28 04:30:40;;;;;;;6.60;3.80;;;;;;;19.83;100.00;98774.00;5061705;28;20219;-79
2023/06/28 04:33:09;;;;;;;5.77;3.60;;;;;;;19.85;100.00;98769.44;5073571;28;20241;-75
2023/06/28 04:35:36;;;;;;;6.03;3.40;;;;;;;19.93;100.00;98768.56;5070147;28;20378;-79
2023/06/28 04:38:04;;;;;;;5.27;3.67;;;;;;;19.99;100.00;98766.03;5073618;28;20211;-78
2023/06/28 04:40:33;;;;;;;5.40;3.60;;;;;;;20.03;100.00;98753.50;5068938;28;20200;-74
2023/06/28 04:43:00;;;;;;;6.67;3.33;;;;;;;20.13;100.00;98752.25;5073354;28;20291;-74
2023/06/28 04:45:36;;;;;;;5.87;3.63;;;;;;;20.21;100.00;98758.31;5070048;28;20201;-74
2023/06/28 04:48:05;;;;;;;8.77;4.07;;;;;;;20.28;100.00;98756.63;5069581;28;20267;-78
2023/06/28 04:50:33;;;;;;;6.67;3.80;;;;;;;20.31;100.00;98761.47;5053556;28;20607;-78
2023/06/28 04:53:00;;;;;;;7.10;4.17;;;;;;;20.35;100.00;98765.28;5052904;28;20203;-79
2023/06/28 04:55:32;;;;;;;8.93;3.77;;;;;;;20.47;100.00;98766.44;5071862;28;20209;-76
2023/06/28 04:58:02;;;;;;;5.37;3.53;;;;;;;20.49;100.00;98759.28;5070859;28;20204;-76
2023/06/28 05:00:29;;;;;;;5.20;3.53;;;;;;;20.68;100.00;98768.31;5072668;28;20301;-78
2023/06/28 05:02:57;;;;;;;5.40;3.37;;;;;;;20.76;100.00;98773.38;5067070;28;20216;-74
2023/06/28 05:05:24;;;;;;;6.17;3.77;;;;;;;20.87;100.00;98777.28;5052706;28;20746;-74
2023/06/28 05:07:53;;;;;;;6.33;3.80;;;;;;;21.06;100.00;98785.47;5053339;28;20614;-77
2023/06/28 05:10:20;;;;;;;5.90;3.60;;;;;;;21.17;100.00;98782.38;5052801;28;20938;-78
2023/06/28 05:12:48;;;;;;;7.87;3.93;;;;;;;21.28;100.00;98794.88;5062478;28;20212;-74
2023/06/28 05:15:15;;;;;;;4.90;3.23;;;;;;;21.43;99.63;98793.03;5073062;28;20282;-79
2023/06/28 05:17:42;;;;;;;6.00;3.30;;;;;;;21.56;100.00;98796.75;5072495;28;20223;-78
2023/06/28 05:20:09;;;;;;;5.23;3.20;;;;;;;21.62;97.07;98793.38;5071945;28;20195;-74
2023/06/28 05:22:42;;;;;;;5.35;3.10;;;;;;;21.79;97.48;98792.09;5067987;28;20230;-74
2023/06/28 05:25:10;;;;;;;3.83;2.75;;;;;;;21.90;97.20;98799.38;5072414;28;20207;-77
2023/06/28 05:27:37;;;;;;;6.57;3.47;;;;;;;21.96;95.59;98797.00;5071989;28;20778;-78
2023/06/28 05:30:04;;;;;;;4.88;2.95;;;;;;;22.19;97.42;98799.34;5066324;28;20217;-79
2023/06/28 05:32:31;;;;;;;5.38;3.10;;;;;;;22.13;90.34;98803.50;5071840;28;20233;-74
2023/06/28 05:34:58;;;;;;;4.60;3.17;;;;;;;22.25;92.51;98807.22;5072046;28;20199;-75
2023/06/28 05:37:25;;;;;;;5.03;3.08;;;;;;;22.33;91.75;98809.63;5072068;28;20218;-79
2023/06/28 05:39:52;;;;;;;5.18;3.30;;;;;;;22.34;91.91;98816.47;5067166;28;20264;-74
2023/06/28 05:42:21;;;;;;;5.75;3.00;;;;;;;22.48;91.95;98816.53;5071751;28;20290;-74
2023/06/28 05:44:48;;;;;;;6.43;3.00;;;;;;;22.46;87.56;98831.56;5072306;28;20198;-74
2023/06/28 05:47:15;;;;;;;3.78;2.78;;;;;;;22.52;87.76;98822.97;5072305;28;20215;-78
2023/06/28 05:49:42;;;;;;;3.70;2.80;;;;;;;22.65;89.03;98827.41;5064097;28;20230;-77
2023/06/28 05:52:09;;;;;;;4.90;2.72;;;;;;;22.70;87.12;98841.47;5072027;28;20262;-77
2023/06/28 05:54:36;;;;;;;3.70;2.58;;;;;;;22.76;86.02;98835.47;5072105;28;20203;-74
2023/06/28 05:57:03;;;;;;;3.25;2.42;;;;;;;23.06;90.03;98837.78;5067964;28;20686;-79
2023/06/28 05:59:32;;;;;;;3.65;2.42;;;;;;;23.05;84.87;98839.59;5067489;28;20207;-79
2023/06/28 06:01:58;;;;;;;4.55;2.85;;;;;;;23.05;82.81;98844.81;5061875;28;20572;-74
2023/06/28 06:04:25;;;;;;;4.80;2.50;;;;;;;23.08;83.57;98842.81;5056430;28;20198;-78
2023/06/28 06:06:52;;;;;;;3.88;2.35;;;;;;;23.12;82.75;98844.81;5057842;28;20211;-73
2023/06/28 06:09:19;;;;;;;4.18;2.67;;;;;;;23.08;80.05;98846.22;5071631;28;20244;-76
2023/06/28 06:11:46;;;;;;;4.45;2.67;;;;;;;23.09;80.05;98847.03;5071516;28;20222;-78
2023/06/28 06:14:13;;;;;;;3.65;2.70;;;;;;;23.04;81.05;98858.06;5071399;28;20195;-79
2023/06/28 06:16:41;;;;;;;3.95;2.35;;;;;;;23.14;83.88;98858.47;5063645;28;20613;-74
2023/06/28 06:19:08;;;;;;;4.03;2.80;;;;;;;23.05;82.34;98852.63;5067995;28;20567;-78
2023/06/28 06:21:35;;;;;;;3.90;2.70;;;;;;;23.32;85.38;98849.28;5070590;28;20215;-74
2023/06/28 06:24:07;;;;;;;3.38;2.70;;;;;;;23.50;83.37;98845.09;5068580;28;20211;-74
2023/06/28 06:26:34;;;;;;;4.03;2.80;;;;;;;23.84;84.13;98847.72;5067781;28;20329;-79
2023/06/28 06:29:01;;;;;;;4.57;2.80;;;;;;;23.95;85.19;98854.94;5062745;28;20222;-74
2023/06/28 06:31:28;;;;;;;3.65;2.55;;;;;;;24.07;80.45;98853.31;5070354;28;20214;-78
2023/06/28 06:34:00;;;;;;;3.65;2.60;;;;;;;24.13;81.36;98855.09;5064907;28;20260;-79
2023/06/28 06:36:27;;;;;;;5.40;2.75;;;;;;;24.25;77.58;98850.03;5069892;28;20276;-79
2023/06/28 06:38:54;;;;;;;4.15;2.60;;;;;;;24.37;83.26;98858.03;5060349;28;20210;-78
2023/06/28 06:41:22;;;;;;;4.80;2.60;;;;;;;24.48;79.40;98864.50;5058809;28;20216;-78
2023/06/28 06:43:49;;;;;;;3.97;2.30;;;;;;;24.60;79.67;98868.84;5059138;28;20199;-79
2023/06/28 06:46:16;;;;;;;4.38;2.47;;;;;;;24.69;76.52;98892.16;5065429;28;20222;-77
2023/06/28 06:48:43;;;;;;;7.45;2.58;;;;;;;24.51;78.46;98898.84;5060326;28;20227;-78
2023/06/28 06:51:12;;;;;;;4.32;2.50;;;;;;;24.71;77.49;98892.75;5048621;28;20224;-76
2023/06/28 06:53:39;;;;;;;2.75;2.13;;;;;;;24.79;78.41;98903.00;5058339;28;20203;-74
2023/06/28 06:56:06;;;;;;;3.78;2.60;;;;;;;24.62;71.75;98898.22;5056591;28;20257;-78
2023/06/28 06:58:33;;;;;;;3.22;2.33;;;;;;;24.65;76.39;98889.16;5060706;28;20291;-77
2023/06/28 07:01:00;;;;;;;4.18;2.47;;;;;;;24.58;71.65;98885.75;5060489;28;20671;-74
2023/06/28 07:03:27;;;;;;;3.60;2.58;;;;;;;24.51;72.43;98898.84;5070253;28;20199;-78
2023/06/28 07:05:54;;;;;;;3.70;2.65;;;;;;;24.35;72.46;98892.25;5064672;28;20748;-75
2023/06/28 07:08:22;;;;;;;3.03;2.22;;;;;;;24.45;73.28;98891.84;5059089;28;20221;-74
2023/06/28 07:10:49;;;;;;;3.72;2.67;;;;;;;24.53;75.45;98883.78;5069878;28;20605;-79
2023/06/28 07:13:16;;;;;;;5.38;2.38;;;;;;;24.33;75.03;98886.41;5067879;28;20214;-74
2023/06/28 07:15:43;;;;;;;3.63;2.17;;;;;;;24.18;73.17;98891.88;5060076;28;20214;-73
2023/06/28 07:18:10;;;;;;;3.58;2.47;;;;;;;24.41;74.32;98885.38;5056689;28;20265;-73
2023/06/28 07:20:37;;;;;;;3.13;2.05;;;;;;;24.38;74.20;98891.03;5059614;28;20199;-78
2023/06/28 07:23:04;;;;;;;6.30;3.72;;;;;;;24.52;74.45;98884.78;5059076;28;20203;-80
2023/06/28 07:25:32;;;;;;;21.30;11.18;;;;;;;24.51;76.22;98880.56;5060493;28;20655;-74
2023/06/28 07:27:59;;;;;;;8.80;4.88;;;;;;;24.55;73.94;98881.75;5059893;28;20203;-73
2023/06/28 07:30:26;;;;;;;7.10;4.68;;;;;;;24.78;74.64;98883.06;5064155;28;20231;-78
2023/06/28 07:32:53;;;;;;;2.90;2.28;;;;;;;24.82;73.31;98887.69;5062927;28;20207;-75
2023/06/28 07:35:19;;;;;;;4.88;2.45;;;;;;;24.95;73.46;98884.19;5059443;28;20198;-77
2023/06/28 07:37:47;;;;;;;5.47;2.53;;;;;;;25.18;75.73;98880.28;5058714;28;20202;-81
2023/06/28 07:40:16;;;;;;;3.78;2.25;;;;;;;25.02;73.58;98877.13;5058548;28;20199;-82
2023/06/28 07:42:44;;;;;;;3.92;2.28;;;;;;;25.33;74.66;98875.56;5060630;28;20191;-81
2023/06/28 07:45:11;;;;;;;3.25;2.28;;;;;;;25.49;70.48;98882.91;5053467;28;20199;-78
2023/06/28 07:47:38;;;;;;;3.65;2.63;;;;;;;25.70;75.69;98888.78;5058857;28;20219;-75
2023/06/28 07:50:06;;;;;;;3.83;2.30;;;;;;;25.80;70.40;98889.09;5058654;28;20722;-80
2023/06/28 07:52:33;;;;;;;2.70;2.10;;;;;;;25.73;67.53;98894.41;5066011;28;20218;-75
2023/06/28 07:55:02;;;;;;;6.10;2.33;;;;;;;26.20;74.62;98899.25;5062978;28;20196;-80
2023/06/28 07:57:29;;;;;;;4.95;2.80;;;;;;;26.32;67.50;98891.47;5064067;28;20222;-81
2023/06/28 07:59:57;;;;;;;7.13;4.10;;;;;;;26.35;67.52;98886.59;5060303;28;20734;-75
2023/06/28 08:02:24;;;;;;;5.07;2.60;;;;;;;26.54;66.85;98895.31;5058751;28;20609;-75
2023/06/28 08:04:52;;;;;;;2.78;1.88;;;;;;;26.67;71.60;98894.34;5054329;28;20195;-75
2023/06/28 08:07:18;;;;;;;3.63;2.10;;;;;;;26.70;70.37;98891.28;5058801;28;20310;-80
2023/06/28 08:09:45;;;;;;;3.58;2.25;;;;;;;26.50;67.70;98888.91;5060717;28;20223;-80
2023/06/28 08:12:12;;;;;;;3.20;2.10;;;;;;;26.62;67.00;98886.34;5060794;28;20214;-75
2023/06/28 08:14:39;;;;;;;4.78;2.30;;;;;;;26.70;64.27;98888.66;5059163;28;20195;-73
2023/06/28 08:17:08;;;;;;;2.55;2.00;;;;;;;26.64;63.87;98885.09;5061419;28;20309;-79
2023/06/28 08:19:35;;;;;;;3.30;1.95;;;;;;;26.57;64.64;98891.44;5064658;28;20221;-75
2023/06/28 08:22:03;;;;;;;3.60;2.38;;;;;;;26.50;59.91;98904.63;5064672;28;20233;-79
2023/06/28 08:24:30;;;;;;;5.20;2.00;;;;;;;26.35;61.19;98897.06;5058484;28;20199;-74
2023/06/28 08:26:57;;;;;;;2.35;1.90;;;;;;;26.49;61.95;98902.97;5064578;28;20741;-78
2023/06/28 08:29:23;;;;;;;2.70;2.00;;;;;;;26.52;60.12;98905.19;5065958;28;20225;-80
2023/06/28 08:31:50;;;;;;;3.45;2.00;;;;;;;26.56;63.06;98887.22;5060395;28;20220;-75
2023/06/28 08:34:19;;;;;;;2.95;1.98;;;;;;;26.35;60.51;98886.59;5057442;28;20202;-79
2023/06/28 08:36:46;;;;;;;4.32;2.13;;;;;;;26.55;62.41;98886.41;5058762;28;20210;-74
2023/06/28 08:39:13;;;;;;;4.25;2.20;;;;;;;26.84;63.82;98887.47;5051782;28;20249;-75
2023/06/28 08:41:42;;;;;;;3.45;1.88;;;;;;;26.68;59.26;98892.53;5054781;28;20772;-80
2023/06/28 08:44:13;;;;;;;2.95;2.20;;;;;;;27.02;60.62;98901.56;5053014;28;20203;-79
2023/06/28 08:46:43;;;;;;;3.63;2.38;;;;;;;26.98;60.08;98900.44;5049676;28;20223;-75
2023/06/28 08:49:10;;;;;;;3.20;1.77;;;;;;;26.84;60.00;98899.78;5055915;28;20219;-74
2023/06/28 08:51:39;;;;;;;2.72;1.98;;;;;;;26.91;60.03;98894.44;5056961;28;20277;-75
2023/06/28 08:54:08;;;;;;;3.00;2.10;;;;;;;26.78;56.84;98890.97;5062547;28;20203;-74
2023/06/28 08:56:36;;;;;;;7.95;1.90;;;;;;;27.01;65.07;98887.66;5048964;28;20224;-76
2023/06/28 08:59:03;;;;;;;2.45;1.88;;;;;;;27.07;62.93;98899.09;5053270;28;20208;-79
2023/06/28 09:01:32;;;;;;;3.25;1.98;;;;;;;27.34;60.73;98898.75;5062089;28;20309;-80
2023/06/28 09:04:00;;;;;;;3.15;2.22;;;;;;;27.27;56.85;98912.78;5072222;28;20608;-79
2023/06/28 09:06:28;;;;;;;4.43;2.05;;;;;;;27.26;57.33;98913.81;5072952;28;20222;-74
2023/06/28 09:08:58;;;;;;;3.20;2.30;;;;;;;27.42;59.83;98904.47;5069568;28;20203;-74
2023/06/28 09:11:25;;;;;;;3.60;1.98;;;;;;;27.51;59.04;98911.00;5055957;28;20219;-74
2023/06/28 09:13:53;;;;;;;2.95;2.20;;;;;;;27.57;56.80;98919.81;5055858;28;20646;-76
2023/06/28 09:16:22;;;;;;;2.80;2.05;;;;;;;27.64;58.54;98925.78;5071941;28;20234;-80
2023/06/28 09:18:49;;;;;;;2.90;1.88;;;;;;;27.46;55.17;98925.81;5067377;28;20715;-75
2023/06/28 09:21:25;;;;;;;5.25;2.13;;;;;;;27.51;57.75;98931.22;5061213;28;20225;-75
2023/06/28 09:23:52;;;;;;;2.92;2.00;;;;;;;27.25;55.71;98927.13;5072351;28;20210;-77
2023/06/28 09:26:20;;;;;;;3.47;1.95;;;;;;;27.22;56.92;98928.38;5071998;28;20218;-74
2023/06/28 09:28:47;;;;;;;3.33;1.77;;;;;;;27.35;58.25;98926.63;5059794;28;20203;-79
2023/06/28 09:31:19;;;;;;;2.58;1.65;;;;;;;27.23;59.29;98916.88;5051471;28;20235;-79
2023/06/28 09:33:46;;;;;;;2.38;1.73;;;;;;;27.38;56.86;98931.41;5052366;28;20609;-75
2023/06/28 09:36:13;;;;;;;2.35;1.70;;;;;;;27.33;57.65;98929.47;5054981;28;20238;-80
2023/06/28 09:38:45;;;;;;;2.90;1.60;;;;;;;27.55;54.86;98927.13;5066550;28;20199;-75
2023/06/28 09:41:12;;;;;;;3.22;1.92;;;;;;;27.49;58.30;98928.03;5067746;28;20277;-79
2023/06/28 09:43:42;;;;;;;3.67;1.98;;;;;;;27.76;55.73;98944.97;5056256;28;20788;-78
2023/06/28 09:46:13;;;;;;;2.08;1.67;;;;;;;27.81;55.24;98935.63;5059051;28;20223;-79
2023/06/28 09:48:43;;;;;;;1.88;1.52;;;;;;;27.56;52.88;98931.34;5051653;28;20203;-74
2023/06/28 09:51:11;;;;;;;2.17;1.65;;;;;;;27.31;54.54;98942.81;5058984;28;20296;-79
2023/06/28 09:53:49;;;;;;;3.00;1.73;;;;;;;27.43;54.86;98934.16;5051730;28;20200;-74
2023/06/28 09:56:16;;;;;;;3.78;2.00;;;;;;;27.13;53.07;98926.28;5059335;28;20231;-80
2023/06/28 09:58:47;;;;;;;2.53;1.67;;;;;;;27.08;52.21;98933.00;5051498;28;20203;-79
2023/06/28 10:01:15;;;;;;;3.13;1.60;;;;;;;26.66;51.95;98933.91;5055558;28;20242;-79
2023/06/28 10:03:43;;;;;;;2.67;1.70;;;;;;;26.41;54.69;98924.25;5065760;28;20401;-75
2023/06/28 10:06:11;;;;;;;2.58;1.63;;;;;;;26.42;54.41;98937.16;5054754;28;20288;-74
2023/06/28 10:08:39;;;;;;;1.52;1.42;;;;;;;26.37;57.32;98925.72;5050920;28;20203;-75
2023/06/28 10:11:09;;;;;;;3.08;1.60;;;;;;;26.41;55.09;98934.72;5051151;28;20614;-77
2023/06/28 10:13:41;;;;;;;2.30;1.73;;;;;;;26.61;56.11;98937.19;5057075;28;20256;-79
2023/06/28 10:16:15;;;;;;;1.83;1.50;;;;;;;26.75;56.62;98943.88;5051180;28;20231;-78
2023/06/28 10:18:43;;;;;;;3.30;1.60;;;;;;;26.86;57.12;98943.16;5056530;28;20199;-75
2023/06/28 10:21:11;;;;;;;2.70;1.85;;;;;;;26.93;54.43;98942.25;5068892;28;20702;-79
2023/06/28 10:23:41;;;;;;;3.88;1.85;;;;;;;26.76;54.44;98935.00;5055341;28;20604;-74
2023/06/28 10:26:09;;;;;;;4.20;1.67;;;;;;;26.78;57.90;98943.44;5050894;28;20244;-75
2023/06/28 10:28:36;;;;;;;3.05;1.85;;;;;;;27.01;56.59;98940.13;5055334;28;20199;-75
2023/06/28 10:31:04;;;;;;;2.80;1.67;;;;;;;26.90;57.09;98955.81;5066241;28;20233;-75
2023/06/28 10:33:36;;;;;;;2.67;1.65;;;;;;;26.89;55.59;98952.41;5061065;28;20199;-79
2023/06/28 10:36:04;;;;;;;2.83;1.60;;;;;;;26.99;54.23;98957.13;5066322;28;20221;-80
2023/06/28 10:38:33;;;;;;;2.17;1.60;;;;;;;27.13;54.90;98961.19;5064080;28;20200;-78
2023/06/28 10:41:02;;;;;;;2.95;1.70;;;;;;;27.44;59.41;98967.28;5058075;28;20645;-74
2023/06/28 10:43:29;;;;;;;1.95;1.58;;;;;;;27.26;53.68;98966.31;5050233;28;20210;-78
2023/06/28 10:45:56;;;;;;;2.10;1.80;;;;;;;27.07;56.54;98983.06;5050397;28;20230;-74
2023/06/28 10:48:27;;;;;;;2.63;1.58;;;;;;;27.18;57.47;98973.69;5049985;28;20196;-77
2023/06/28 10:51:00;;;;;;;2.65;1.80;;;;;;;27.00;53.68;98977.09;5067007;28;20233;-77
2023/06/28 10:53:28;;;;;;;7.38;1.60;;;;;;;27.14;57.29;98981.19;5066745;28;20203;-78
2023/06/28 10:56:10;;;;;;;2.28;1.70;;;;;;;27.14;54.06;98990.84;5063963;28;20218;-74
2023/06/28 10:58:39;;;;;;;3.42;1.77;;;;;;;26.85;54.06;98980.91;5064805;28;20203;-73
2023/06/28 11:01:07;;;;;;;5.40;2.00;;;;;;;26.71;55.29;98979.44;5050342;28;20231;-79
2023/06/28 11:03:39;;;;;;;3.35;1.70;;;;;;;26.42;57.29;98981.72;5050205;28;20203;-78
2023/06/28 11:06:08;;;;;;;5.75;2.00;;;;;;;26.29;58.21;98983.66;5050065;28;20277;-80
2023/06/28 11:08:40;;;;;;;3.75;1.98;;;;;;;26.05;56.82;98986.06;5062519;28;20195;-79
2023/06/28 11:11:08;;;;;;;3.10;1.75;;;;;;;25.72;58.44;98986.28;5049569;28;20235;-78
2023/06/28 11:13:46;;;;;;;2.78;1.80;;;;;;;25.42;58.26;98986.84;5049326;28;20250;-75
2023/06/28 11:16:17;;;;;;;3.10;1.92;;;;;;;25.02;60.14;98992.22;5064681;28;20229;-78
2023/06/28 11:18:44;;;;;;;6.47;2.28;;;;;;;24.80;61.69;98983.03;5063879;28;20200;-79
2023/06/28 11:21:17;;;;;;;2.58;2.00;;;;;;;24.92;62.19;98991.84;5059374;28;20215;-78
2023/06/28 11:23:46;;;;;;;2.90;1.98;;;;;;;24.71;63.33;98974.59;5063988;28;20261;-79
2023/06/28 11:26:16;;;;;;;3.67;2.10;;;;;;;24.61;64.33;98979.47;5057748;28;20215;-77
2023/06/28 11:28:50;;;;;;;3.67;2.10;;;;;;;24.29;64.98;98970.63;5059520;28;20203;-77
2023/06/28 11:31:19;;;;;;;2.35;2.00;;;;;;;23.91;66.35;98979.06;5066280;28;20230;-78